LDZD/ZAD METAR and TAF weather

Enter ICAO airport designator
Station Type Date Time Source
LDZD METAR 2018/12/13 20:00 UTC NOAA

LDZD 132000Z 08012KT 030V120 9999 -RA FEW033 OVC050 03/01 Q1013 NOSIG


Station Type Date Time Source
LDZD Decoded METAR 2018/12/13 20:00 UTC NOAA

Zadar / Zemunik, Croatia (LDZD) 44-06N 015-21E
Dec 13, 2018 - 03:00 PM EST / 2018.12.13 2000 UTC
Wind: from the E (080 degrees) at 14 MPH (12 KT) (direction variable):0
Visibility: greater than 7 mile(s):0
Sky conditions: overcast
Weather: light rain
Temperature: 37 F (3 C)
Dew Point: 33 F (1 C)
Relative Humidity: 86%
Pressure (altimeter): 29.91 in. Hg (1013 hPa)
ob: LDZD 132000Z 08012KT 030V120 9999 -RA FEW033 OVC050 03/01 Q1013 NOSIG
cycle: 20

Station Type Date Time Source
LDZD TAF 2018/12/13 18:30 UTC NOAA

TAF LDZD 131725Z 1318/1418 08010KT 9999 BKN030 TX05/1412Z TN02/1417Z
BECMG 1406/1408 06012KT PROB40
TEMPO 1406/1415 5000 RA
TEMPO 1408/1418 06015G25KT


Example: see airport list